Terminal Aerodrome Forecast
Issued by NWS

Home | Current Version | Previous Version | Graphics & Text | Print | Product List | Glossary On
Versions: 1 2 3 4 5 6 7 8 9 10 11 12 13 14 15 16 17
000
FTUS43 KFGF 291140
TAFBJI
TAF
KBJI 291140Z 2912/3012 34015G21KT P6SM OVC010
      TEMPO 2912/2916 3SM -RA BR OVC004
     FM292000 36016G24KT P6SM BKN025
     FM300400 33013G20KT P6SM SCT025=

USA.gov is the U.S. government's official web portal to all federal, state and local government web resources and services.